createdAt,value
2023-01-10T00:01:53.122Z,52.90
2023-01-10T00:04:19.829Z,52.90
2023-01-10T00:06:46.521Z,53.00
2023-01-10T00:09:14.815Z,52.90
2023-01-10T00:12:01.294Z,53.00
2023-01-10T00:14:29.309Z,52.90
2023-01-10T00:16:57.448Z,52.90
2023-01-10T00:19:24.469Z,53.00
2023-01-10T00:21:51.783Z,52.90
2023-01-10T00:24:22.452Z,52.90
2023-01-10T00:26:52.848Z,52.90
2023-01-10T00:29:29.216Z,52.90
2023-01-10T00:31:55.895Z,53.00
2023-01-10T00:34:25.723Z,52.90
2023-01-10T00:36:53.050Z,53.00
2023-01-10T00:39:20.888Z,52.90
2023-01-10T00:42:06.271Z,52.90
2023-01-10T00:44:33.036Z,52.90
2023-01-10T00:46:59.737Z,52.80
2023-01-10T00:49:26.371Z,52.80
2023-01-10T00:51:53.218Z,52.80
2023-01-10T00:54:19.917Z,52.80
2023-01-10T00:56:46.668Z,52.70
2023-01-10T00:59:13.473Z,52.80
2023-01-10T01:01:40.258Z,52.70
2023-01-10T01:04:07.050Z,52.60
2023-01-10T01:06:33.854Z,52.70
2023-01-10T01:09:00.515Z,52.70
2023-01-10T01:11:27.732Z,52.70
2023-01-10T01:13:54.472Z,52.80
2023-01-10T01:16:21.358Z,52.80
2023-01-10T01:18:48.086Z,52.80
2023-01-10T01:21:14.841Z,52.80
2023-01-10T01:23:42.290Z,52.80
2023-01-10T01:26:09.030Z,53.40
2023-01-10T01:28:35.695Z,52.80
2023-01-10T01:31:07.827Z,52.80
2023-01-10T01:33:34.992Z,52.80
2023-01-10T01:36:01.690Z,52.80
2023-01-10T01:38:28.483Z,52.80
2023-01-10T01:40:55.178Z,52.80
2023-01-10T01:43:23.389Z,52.80
2023-01-10T01:45:52.061Z,52.80
2023-01-10T01:48:27.968Z,52.80
2023-01-10T01:50:59.340Z,52.70
2023-01-10T01:53:31.021Z,52.70
2023-01-10T01:56:00.032Z,52.70
2023-01-10T01:58:32.581Z,52.60
2023-01-10T02:00:59.465Z,52.70
2023-01-10T02:03:26.323Z,52.70
2023-01-10T02:05:53.132Z,52.60
2023-01-10T02:08:20.062Z,52.60
2023-01-10T02:10:54.830Z,52.60
2023-01-10T02:13:23.472Z,53.20
2023-01-10T02:15:51.044Z,52.60
2023-01-10T02:18:17.946Z,52.60
2023-01-10T02:20:48.065Z,52.60
2023-01-10T02:23:33.122Z,52.60
2023-01-10T02:26:15.260Z,52.60
2023-01-10T02:29:00.841Z,52.60
2023-01-10T02:31:30.963Z,52.60
2023-01-10T02:33:59.256Z,52.50
2023-01-10T02:36:31.945Z,52.60
2023-01-10T02:39:00.817Z,52.60
2023-01-10T02:41:34.179Z,52.60
2023-01-10T02:44:27.150Z,52.60
2023-01-10T02:46:53.841Z,52.60
2023-01-10T02:49:20.584Z,52.70
2023-01-10T02:51:47.238Z,52.60
2023-01-10T02:54:16.464Z,52.70
2023-01-10T02:57:02.074Z,52.60
2023-01-10T02:59:34.938Z,52.50
2023-01-10T03:02:04.789Z,52.60
2023-01-10T03:04:37.666Z,52.50
2023-01-10T03:07:07.498Z,52.40
2023-01-10T03:09:43.548Z,52.50
2023-01-10T03:12:12.421Z,52.40
2023-01-10T03:14:39.056Z,52.30
2023-01-10T03:17:06.647Z,52.50
2023-01-10T03:19:34.908Z,52.50
2023-01-10T03:22:01.853Z,52.40
2023-01-10T03:24:33.414Z,52.50
2023-01-10T03:27:07.631Z,52.40
2023-01-10T03:29:36.977Z,52.50
2023-01-10T03:32:05.255Z,52.50
2023-01-10T03:34:31.929Z,52.40
2023-01-10T03:37:15.488Z,52.50
2023-01-10T03:39:44.290Z,52.50
2023-01-10T03:42:11.017Z,52.40
2023-01-10T03:44:44.665Z,52.50
2023-01-10T03:47:17.532Z,52.50
2023-01-10T03:49:44.713Z,52.50
2023-01-10T03:52:12.317Z,52.50
2023-01-10T03:54:39.004Z,53.20
2023-01-10T03:57:05.898Z,52.50
2023-01-10T03:59:32.577Z,52.50
2023-01-10T04:01:59.523Z,52.50
2023-01-10T04:04:26.371Z,52.40
2023-01-10T04:06:53.214Z,52.40
2023-01-10T04:09:19.930Z,52.40
2023-01-10T04:11:46.699Z,52.50
2023-01-10T04:14:13.412Z,52.30
2023-01-10T04:16:40.133Z,52.40
2023-01-10T04:19:13.155Z,52.40
2023-01-10T04:21:39.843Z,52.30
2023-01-10T04:24:06.754Z,52.40
2023-01-10T04:26:33.505Z,52.30
2023-01-10T04:29:00.508Z,52.30
2023-01-10T04:31:27.258Z,52.30
2023-01-10T04:33:53.976Z,52.20
2023-01-10T04:36:20.822Z,52.40
2023-01-10T04:38:47.484Z,52.30
2023-01-10T04:41:14.176Z,52.30
2023-01-10T04:43:40.786Z,52.30
2023-01-10T04:46:07.613Z,52.30
2023-01-10T04:48:37.331Z,52.40
2023-01-10T04:51:04.242Z,52.40
2023-01-10T04:53:30.952Z,52.30
2023-01-10T04:56:01.956Z,52.40
2023-01-10T04:58:28.878Z,52.40
2023-01-10T05:00:55.481Z,52.40
2023-01-10T05:03:22.223Z,52.30
2023-01-10T05:05:48.900Z,52.30
2023-01-10T05:08:15.645Z,52.30
2023-01-10T05:10:42.342Z,52.30
2023-01-10T05:13:09.024Z,52.30
2023-01-10T05:15:35.728Z,52.20
2023-01-10T05:18:02.392Z,52.30
2023-01-10T05:20:29.074Z,52.30
2023-01-10T05:22:55.756Z,52.30
2023-01-10T05:25:22.460Z,52.30
2023-01-10T05:27:49.115Z,52.20
2023-01-10T05:30:15.950Z,52.10
2023-01-10T05:32:42.680Z,52.30
2023-01-10T05:35:10.802Z,52.20
2023-01-10T05:37:38.209Z,52.30
2023-01-10T05:40:05.200Z,52.20
2023-01-10T05:42:33.260Z,52.30
2023-01-10T05:45:06.533Z,52.30
2023-01-10T05:47:33.212Z,52.90
2023-01-10T05:50:03.862Z,52.30
2023-01-10T05:52:30.583Z,52.30
2023-01-10T05:54:57.328Z,52.40
2023-01-10T05:57:24.766Z,52.30
2023-01-10T05:59:51.697Z,52.40
2023-01-10T06:02:18.601Z,52.40
2023-01-10T06:04:45.426Z,52.60
2023-01-10T06:07:12.106Z,52.30
2023-01-10T06:09:38.777Z,52.30
2023-01-10T06:12:05.522Z,52.50
2023-01-10T06:14:32.209Z,52.60
2023-01-10T06:16:58.895Z,52.90
2023-01-10T06:19:25.576Z,52.80
2023-01-10T06:21:52.242Z,52.80
2023-01-10T06:24:18.918Z,52.90
2023-01-10T06:26:45.669Z,52.90
2023-01-10T06:29:12.421Z,53.00
2023-01-10T06:31:42.286Z,53.00
2023-01-10T06:34:08.985Z,52.90
2023-01-10T06:36:35.672Z,52.90
2023-01-10T06:39:02.400Z,52.80
2023-01-10T06:41:29.096Z,52.80
2023-01-10T06:43:55.792Z,52.70
2023-01-10T06:46:22.481Z,52.80
2023-01-10T06:48:49.168Z,52.80
2023-01-10T06:51:17.555Z,52.80
2023-01-10T06:53:51.452Z,52.80
2023-01-10T06:56:18.139Z,52.70
2023-01-10T06:58:48.528Z,52.70
2023-01-10T07:01:15.860Z,52.70
2023-01-10T07:03:42.779Z,52.70
2023-01-10T07:06:10.318Z,52.70
2023-01-10T07:08:37.503Z,52.70
2023-01-10T07:11:04.280Z,52.70
2023-01-10T07:13:30.937Z,52.60
2023-01-10T07:16:01.631Z,52.70
2023-01-10T07:18:28.327Z,52.60
2023-01-10T07:20:55.587Z,52.60
2023-01-10T07:23:22.405Z,52.60
2023-01-10T07:25:49.061Z,52.50
2023-01-10T07:28:15.767Z,52.50
2023-01-10T07:30:42.415Z,52.50
2023-01-10T07:33:09.146Z,52.50
2023-01-10T07:35:35.828Z,52.40
2023-01-10T07:38:03.295Z,52.40
2023-01-10T07:40:29.963Z,52.50
2023-01-10T07:43:16.587Z,52.40
2023-01-10T07:45:43.601Z,52.50
2023-01-10T07:48:10.405Z,52.40
2023-01-10T07:50:37.211Z,52.40
2023-01-10T07:53:10.134Z,52.40
2023-01-10T07:55:38.960Z,52.40
2023-01-10T07:58:07.987Z,52.40
2023-01-10T08:00:34.957Z,52.40
2023-01-10T08:03:01.806Z,52.40
2023-01-10T08:05:28.731Z,52.40
2023-01-10T08:07:59.962Z,52.30
2023-01-10T08:10:29.791Z,52.40
2023-01-10T08:12:57.768Z,52.30
2023-01-10T08:15:26.222Z,52.40
2023-01-10T08:17:53.172Z,52.40
2023-01-10T08:20:19.899Z,52.30
2023-01-10T08:22:46.627Z,52.30
2023-01-10T08:25:13.524Z,52.30
2023-01-10T08:27:40.191Z,52.30
2023-01-10T08:30:08.524Z,52.30
2023-01-10T08:32:35.191Z,52.30
2023-01-10T08:35:01.850Z,52.30
2023-01-10T08:37:28.967Z,52.20
2023-01-10T08:39:55.625Z,52.30
2023-01-10T08:42:22.285Z,52.20
2023-01-10T08:44:48.978Z,52.20
2023-01-10T08:47:15.692Z,52.10
2023-01-10T08:49:42.398Z,52.10
2023-01-10T08:52:09.531Z,52.10
2023-01-10T08:54:54.861Z,52.00
2023-01-10T08:57:21.543Z,52.10
2023-01-10T08:59:48.505Z,52.10
2023-01-10T09:02:15.798Z,52.00
2023-01-10T09:04:42.555Z,52.00
2023-01-10T09:07:09.552Z,52.10
2023-01-10T09:09:39.228Z,52.00
2023-01-10T09:12:25.981Z,52.10
2023-01-10T09:14:53.316Z,52.00
2023-01-10T09:17:19.960Z,52.10
2023-01-10T09:19:46.682Z,52.00
2023-01-10T09:22:13.409Z,52.10
2023-01-10T09:24:41.867Z,52.10
2023-01-10T09:27:08.570Z,52.10
2023-01-10T09:29:41.386Z,52.10
2023-01-10T09:32:10.133Z,52.10
2023-01-10T09:34:36.780Z,52.10
2023-01-10T09:37:03.449Z,52.10
2023-01-10T09:39:30.100Z,52.10
2023-01-10T09:42:15.428Z,52.10
2023-01-10T09:44:48.264Z,52.00
2023-01-10T09:47:22.745Z,52.10
2023-01-10T09:50:08.769Z,52.00
2023-01-10T09:52:40.036Z,52.10
2023-01-10T09:55:25.651Z,52.00
2023-01-10T09:57:55.726Z,52.00
2023-01-10T10:00:23.262Z,52.00
2023-01-10T10:02:51.013Z,52.00
2023-01-10T10:05:25.111Z,52.00
2023-01-10T10:07:56.121Z,52.00
2023-01-10T10:10:23.988Z,52.00
2023-01-10T10:13:00.315Z,52.00
2023-01-10T10:15:36.168Z,51.90
2023-01-10T10:18:23.091Z,52.00
2023-01-10T10:21:02.421Z,52.00
2023-01-10T10:24:05.099Z,52.10
2023-01-10T10:26:35.599Z,51.90
2023-01-10T10:29:02.280Z,52.00
2023-01-10T10:31:44.332Z,51.90
2023-01-10T10:34:10.997Z,52.00
2023-01-10T10:36:50.035Z,52.00
2023-01-10T10:39:21.127Z,52.00
2023-01-10T10:41:48.628Z,52.00
2023-01-10T10:44:30.563Z,51.90
2023-01-10T10:46:58.243Z,52.00
2023-01-10T10:49:31.145Z,51.90
2023-01-10T10:51:57.834Z,51.90
2023-01-10T10:54:24.484Z,51.80
2023-01-10T10:56:55.447Z,51.80
2023-01-10T10:59:22.288Z,51.80
2023-01-10T11:01:55.181Z,51.70
2023-01-10T11:04:22.415Z,51.70
2023-01-10T11:07:08.800Z,51.70
2023-01-10T11:09:50.249Z,51.70
2023-01-10T11:12:17.396Z,51.70
2023-01-10T11:14:46.061Z,51.70
2023-01-10T11:17:40.888Z,51.70
2023-01-10T11:20:14.989Z,51.70
2023-01-10T11:22:46.975Z,51.70
2023-01-10T11:25:17.990Z,51.70
2023-01-10T11:28:11.232Z,51.70
2023-01-10T11:30:37.910Z,51.70
2023-01-10T11:33:05.535Z,51.70
2023-01-10T11:35:33.292Z,51.70
2023-01-10T11:38:19.136Z,51.70
2023-01-10T11:40:53.443Z,51.80
2023-01-10T11:43:27.844Z,51.70
2023-01-10T11:46:06.919Z,51.70
2023-01-10T11:49:03.753Z,51.70
2023-01-10T11:51:27.168Z,51.70
2023-01-10T11:54:00.891Z,51.70
2023-01-10T11:56:29.010Z,51.70
2023-01-10T11:58:55.787Z,51.70
2023-01-10T12:01:25.530Z,51.60
2023-01-10T12:03:52.398Z,51.70
2023-01-10T12:06:25.292Z,51.60
2023-01-10T12:08:56.129Z,51.60
2023-01-10T12:11:27.313Z,51.70
2023-01-10T12:13:55.013Z,51.50
2023-01-10T12:16:28.737Z,51.70
2023-01-10T12:19:02.013Z,51.50
2023-01-10T12:21:55.125Z,51.50
2023-01-10T12:24:26.022Z,51.40
2023-01-10T12:26:59.480Z,51.40
2023-01-10T12:29:27.503Z,51.40
2023-01-10T12:31:54.286Z,51.40
2023-01-10T12:34:22.030Z,52.10
2023-01-10T12:36:57.873Z,51.40
2023-01-10T12:39:24.611Z,51.40
2023-01-10T12:42:13.098Z,51.40
2023-01-10T12:44:46.333Z,51.40
2023-01-10T12:47:19.461Z,51.50
2023-01-10T12:50:09.598Z,51.40
2023-01-10T12:52:42.751Z,51.40
2023-01-10T12:55:16.196Z,52.00
2023-01-10T12:57:43.621Z,51.40
2023-01-10T13:00:19.443Z,51.40
2023-01-10T13:02:46.344Z,51.40
2023-01-10T13:05:18.173Z,51.40
2023-01-10T13:07:51.684Z,51.40
2023-01-10T13:10:21.964Z,51.40
2023-01-10T13:12:57.365Z,51.40
2023-01-10T13:15:28.587Z,51.40
2023-01-10T13:17:57.742Z,51.40
2023-01-10T13:20:26.204Z,51.40
2023-01-10T13:23:01.919Z,51.40
2023-01-10T13:25:34.975Z,51.40
2023-01-10T13:28:04.735Z,51.40
2023-01-10T13:30:32.437Z,51.40
2023-01-10T13:33:04.602Z,51.40
2023-01-10T13:35:38.481Z,51.40
2023-01-10T13:38:05.178Z,51.40
2023-01-10T13:40:31.983Z,51.40
2023-01-10T13:43:20.597Z,51.40
2023-01-10T13:45:47.280Z,51.40
2023-01-10T13:48:27.589Z,51.30
2023-01-10T13:50:57.878Z,51.40
2023-01-10T13:53:44.001Z,51.40
2023-01-10T13:56:29.528Z,51.40
2023-01-10T13:59:15.013Z,51.40
2023-01-10T14:02:00.581Z,51.40
2023-01-10T14:04:27.465Z,51.40
2023-01-10T14:06:55.117Z,51.40
2023-01-10T14:09:21.828Z,51.30
2023-01-10T14:11:50.165Z,52.00
2023-01-10T14:14:24.554Z,51.40
2023-01-10T14:16:52.190Z,51.30
2023-01-10T14:19:37.015Z,51.40
2023-01-10T14:22:03.952Z,51.40
2023-01-10T14:24:32.844Z,51.40
2023-01-10T14:27:00.468Z,51.40
2023-01-10T14:29:36.325Z,51.40
2023-01-10T14:32:02.996Z,51.40
2023-01-10T14:34:30.577Z,51.30
2023-01-10T14:36:57.279Z,51.20
2023-01-10T14:39:24.070Z,51.20
2023-01-10T14:41:52.065Z,51.20
2023-01-10T14:44:20.045Z,51.20
2023-01-10T14:46:48.249Z,51.40
2023-01-10T14:49:21.068Z,51.30
2023-01-10T14:51:50.831Z,51.30
2023-01-10T14:54:18.386Z,51.20
2023-01-10T14:56:51.678Z,51.30
2023-01-10T14:59:27.543Z,51.40
2023-01-10T15:01:57.505Z,51.40
2023-01-10T15:04:28.060Z,51.40
2023-01-10T15:06:59.837Z,51.30
2023-01-10T15:09:26.667Z,51.40
2023-01-10T15:11:58.090Z,51.40
2023-01-10T15:14:27.070Z,51.30
2023-01-10T15:16:57.825Z,51.30
2023-01-10T15:19:24.564Z,51.20
2023-01-10T15:21:51.296Z,51.30
2023-01-10T15:24:33.917Z,51.20
2023-01-10T15:27:01.809Z,51.20
2023-01-10T15:29:28.499Z,51.20
2023-01-10T15:31:57.433Z,51.00
2023-01-10T15:34:26.480Z,51.20
2023-01-10T15:36:56.528Z,51.30
2023-01-10T15:39:24.135Z,51.20
2023-01-10T15:41:54.782Z,51.10
2023-01-10T15:44:22.068Z,51.40
2023-01-10T15:46:56.005Z,51.40
2023-01-10T15:49:25.886Z,51.40
2023-01-10T15:51:52.705Z,51.40
2023-01-10T15:54:19.693Z,51.40
2023-01-10T15:56:53.318Z,51.50
2023-01-10T15:59:38.980Z,51.50
2023-01-10T16:02:12.355Z,51.50
2023-01-10T16:04:39.301Z,51.40
2023-01-10T16:07:07.015Z,51.50
2023-01-10T16:09:34.087Z,51.50
2023-01-10T16:12:19.366Z,51.40
2023-01-10T16:14:49.302Z,51.50
2023-01-10T16:17:16.046Z,51.40
2023-01-10T16:19:42.710Z,51.40
2023-01-10T16:22:11.047Z,51.40
2023-01-10T16:24:37.939Z,51.40
2023-01-10T16:27:05.907Z,51.40
2023-01-10T16:29:32.897Z,51.40
2023-01-10T16:31:59.599Z,51.40
2023-01-10T16:34:26.303Z,51.40
2023-01-10T16:36:53.095Z,51.40
2023-01-10T16:39:20.948Z,51.40
2023-01-10T16:42:12.643Z,51.40
2023-01-10T16:44:39.691Z,51.40
2023-01-10T16:47:07.212Z,51.40
2023-01-10T16:49:34.134Z,51.40
2023-01-10T16:52:01.142Z,51.40
2023-01-10T16:54:28.404Z,51.30
2023-01-10T16:57:01.966Z,51.40
2023-01-10T16:59:28.790Z,51.40
2023-01-10T17:01:57.140Z,51.30
2023-01-10T17:04:28.186Z,51.40
2023-01-10T17:07:01.676Z,51.40
2023-01-10T17:09:29.449Z,51.40
2023-01-10T17:12:02.043Z,51.40
2023-01-10T17:14:33.091Z,51.50
2023-01-10T17:17:04.894Z,51.50
2023-01-10T17:19:32.855Z,51.40
2023-01-10T17:22:00.565Z,51.50
2023-01-10T17:24:29.688Z,51.50
2023-01-10T17:26:56.679Z,51.40
2023-01-10T17:29:23.602Z,51.40
2023-01-10T17:31:50.734Z,51.50
2023-01-10T17:34:17.772Z,51.40
2023-01-10T17:36:44.548Z,51.40
2023-01-10T17:39:11.585Z,51.40
2023-01-10T17:41:38.435Z,48.60
2023-01-10T17:44:11.304Z,50.40
2023-01-10T17:46:39.020Z,51.10
2023-01-10T17:49:05.715Z,51.40
2023-01-10T17:51:32.511Z,51.40
2023-01-10T17:53:59.889Z,51.40
2023-01-10T17:56:26.654Z,51.40
2023-01-10T17:58:53.822Z,51.50
2023-01-10T18:01:24.556Z,51.50
2023-01-10T18:03:51.751Z,51.70
2023-01-10T18:06:23.851Z,51.50
2023-01-10T18:08:51.121Z,51.50
2023-01-10T18:11:17.884Z,51.60
2023-01-10T18:13:44.659Z,51.20
2023-01-10T18:16:11.314Z,51.00
2023-01-10T18:18:38.074Z,50.70
2023-01-10T18:21:07.459Z,50.50
2023-01-10T18:23:34.158Z,50.50
2023-01-10T18:26:01.620Z,50.10
2023-01-10T18:28:40.625Z,50.00
2023-01-10T18:31:09.279Z,50.00
2023-01-10T18:33:36.068Z,50.80
2023-01-10T18:36:03.612Z,50.30
2023-01-10T18:38:33.769Z,50.50
2023-01-10T18:41:00.754Z,50.60
2023-01-10T18:43:29.233Z,50.70
2023-01-10T18:46:01.962Z,50.90
2023-01-10T18:48:28.747Z,50.90
2023-01-10T18:51:01.832Z,50.90
2023-01-10T18:53:28.549Z,50.90
2023-01-10T18:55:55.817Z,51.10
2023-01-10T18:58:23.398Z,51.10
2023-01-10T19:00:50.104Z,51.10
2023-01-10T19:03:16.747Z,51.20
2023-01-10T19:05:43.533Z,51.20
2023-01-10T19:08:10.329Z,51.30
2023-01-10T19:11:00.050Z,51.30
2023-01-10T19:13:23.705Z,51.30
2023-01-10T19:15:50.872Z,51.20
2023-01-10T19:18:17.650Z,51.30
2023-01-10T19:20:44.324Z,51.20
2023-01-10T19:23:11.192Z,51.30
2023-01-10T19:25:38.961Z,51.20
2023-01-10T19:28:05.654Z,51.30
2023-01-10T19:30:32.435Z,51.40
2023-01-10T19:32:59.157Z,51.30
2023-01-10T19:35:25.872Z,51.30
2023-01-10T19:37:53.100Z,52.10
2023-01-10T19:40:19.807Z,52.00
2023-01-10T19:42:46.435Z,51.40
2023-01-10T19:45:13.148Z,51.50
2023-01-10T19:47:39.889Z,51.40
2023-01-10T19:50:06.696Z,51.50
2023-01-10T19:52:33.358Z,51.50
2023-01-10T19:55:00.057Z,51.50
2023-01-10T19:57:26.722Z,51.50
2023-01-10T19:59:55.801Z,52.10
2023-01-10T20:02:23.152Z,51.60
2023-01-10T20:04:49.953Z,51.60
2023-01-10T20:07:18.669Z,51.40
2023-01-10T20:09:45.508Z,51.50
2023-01-10T20:12:14.119Z,51.50
2023-01-10T20:14:40.856Z,51.50
2023-01-10T20:17:08.137Z,51.50
2023-01-10T20:19:34.818Z,51.50
2023-01-10T20:22:01.507Z,51.50
2023-01-10T20:24:31.229Z,52.00
2023-01-10T20:26:58.171Z,51.50
2023-01-10T20:29:24.832Z,51.40
2023-01-10T20:31:55.789Z,51.50
2023-01-10T20:34:22.995Z,51.50
2023-01-10T20:36:52.541Z,51.50
2023-01-10T20:39:19.319Z,51.40
2023-01-10T20:41:46.034Z,51.40
2023-01-10T20:44:12.703Z,51.50
2023-01-10T20:46:39.935Z,51.40
2023-01-10T20:49:06.718Z,51.50
2023-01-10T20:51:33.772Z,51.50
2023-01-10T20:54:00.696Z,51.40
2023-01-10T20:56:28.355Z,51.50
2023-01-10T20:58:55.133Z,51.40
2023-01-10T21:01:33.765Z,51.50
2023-01-10T21:04:05.532Z,51.40
2023-01-10T21:06:32.527Z,52.00
2023-01-10T21:09:00.528Z,51.40
2023-01-10T21:11:27.333Z,51.40
2023-01-10T21:13:53.987Z,51.40
2023-01-10T21:16:22.328Z,51.40
2023-01-10T21:18:49.362Z,51.40
2023-01-10T21:21:17.173Z,51.40
2023-01-10T21:23:43.853Z,51.40
2023-01-10T21:26:13.939Z,51.40
2023-01-10T21:28:46.475Z,51.40
2023-01-10T21:31:13.946Z,51.40
2023-01-10T21:33:40.715Z,51.40
2023-01-10T21:36:07.582Z,51.40
2023-01-10T21:38:36.269Z,51.40
2023-01-10T21:41:12.866Z,51.40
2023-01-10T21:43:44.194Z,51.40
2023-01-10T21:46:11.579Z,51.40
2023-01-10T21:48:38.296Z,51.40
2023-01-10T21:51:05.037Z,51.40
2023-01-10T21:53:31.706Z,51.40
2023-01-10T21:55:59.639Z,51.40
2023-01-10T21:58:26.408Z,51.40
2023-01-10T22:00:59.387Z,51.40
2023-01-10T22:03:26.201Z,51.40
2023-01-10T22:05:53.195Z,51.40
2023-01-10T22:08:19.858Z,51.30
2023-01-10T22:10:46.530Z,51.30
2023-01-10T22:13:13.214Z,51.20
2023-01-10T22:15:41.246Z,51.20
2023-01-10T22:18:13.991Z,51.20
2023-01-10T22:20:43.609Z,51.20
2023-01-10T22:23:10.388Z,51.30
2023-01-10T22:25:37.107Z,51.20
2023-01-10T22:28:07.267Z,51.30
2023-01-10T22:30:33.941Z,51.30
2023-01-10T22:33:00.729Z,51.30
2023-01-10T22:35:27.435Z,51.40
2023-01-10T22:37:55.570Z,51.30
2023-01-10T22:40:22.725Z,51.30
2023-01-10T22:42:52.409Z,51.30
2023-01-10T22:45:19.232Z,51.30
2023-01-10T22:47:47.806Z,51.30
2023-01-10T22:50:14.548Z,51.30
2023-01-10T22:52:41.242Z,51.30
2023-01-10T22:55:08.123Z,51.30
2023-01-10T22:57:46.357Z,51.30
2023-01-10T23:00:13.768Z,51.30
2023-01-10T23:02:40.457Z,51.30
2023-01-10T23:05:07.352Z,51.30
2023-01-10T23:07:34.118Z,51.30
2023-01-10T23:10:04.612Z,51.30
2023-01-10T23:12:31.277Z,51.20
2023-01-10T23:14:58.012Z,51.30
2023-01-10T23:17:24.758Z,51.50
2023-01-10T23:19:51.583Z,51.30
2023-01-10T23:22:18.239Z,51.30
2023-01-10T23:24:44.878Z,51.20
2023-01-10T23:27:11.514Z,51.30
2023-01-10T23:29:38.215Z,51.30
2023-01-10T23:32:05.008Z,51.30
2023-01-10T23:34:31.742Z,51.30
2023-01-10T23:36:58.409Z,51.20
2023-01-10T23:39:25.094Z,51.30
2023-01-10T23:41:51.751Z,51.30
2023-01-10T23:44:18.445Z,51.30
2023-01-10T23:46:45.187Z,51.30
2023-01-10T23:49:15.012Z,51.30
2023-01-10T23:51:41.691Z,51.30
2023-01-10T23:54:11.577Z,51.30
2023-01-10T23:56:38.444Z,51.30
2023-01-10T23:59:05.132Z,51.20
